sensor_id;sensor_type;location;lat;lon;timestamp;P1;durP1;ratioP1;P2;durP2;ratioP2
46561;SDS011;32289;42.688;23.330;2023-02-11T00:02:16;22.98;;;7.50;;
46561;SDS011;32289;42.688;23.330;2023-02-11T00:06:00;20.10;;;6.28;;
46561;SDS011;32289;42.688;23.330;2023-02-11T00:09:50;12.85;;;5.28;;
46561;SDS011;32289;42.688;23.330;2023-02-11T00:13:49;13.85;;;7.00;;
46561;SDS011;32289;42.688;23.330;2023-02-11T00:17:37;15.65;;;5.72;;
46561;SDS011;32289;42.688;23.330;2023-02-11T00:21:43;14.57;;;5.50;;
46561;SDS011;32289;42.688;23.330;2023-02-11T00:25:31;13.10;;;4.78;;
46561;SDS011;32289;42.688;23.330;2023-02-11T00:29:29;10.93;;;4.95;;
46561;SDS011;32289;42.688;23.330;2023-02-11T00:33:35;13.25;;;4.93;;
46561;SDS011;32289;42.688;23.330;2023-02-11T00:37:23;19.02;;;5.40;;
46561;SDS011;32289;42.688;23.330;2023-02-11T00:41:10;14.15;;;5.03;;
46561;SDS011;32289;42.688;23.330;2023-02-11T00:44:54;14.60;;;5.80;;
46561;SDS011;32289;42.688;23.330;2023-02-11T00:48:34;19.73;;;6.07;;
46561;SDS011;32289;42.688;23.330;2023-02-11T00:52:15;9.98;;;5.07;;
46561;SDS011;32289;42.688;23.330;2023-02-11T00:55:56;13.73;;;6.28;;
46561;SDS011;32289;42.688;23.330;2023-02-11T00:59:37;11.98;;;5.55;;
46561;SDS011;32289;42.688;23.330;2023-02-11T01:03:17;11.52;;;7.13;;
46561;SDS011;32289;42.688;23.330;2023-02-11T01:06:58;18.38;;;5.95;;
46561;SDS011;32289;42.688;23.330;2023-02-11T01:10:39;10.18;;;3.65;;
46561;SDS011;32289;42.688;23.330;2023-02-11T01:14:19;14.32;;;6.85;;
46561;SDS011;32289;42.688;23.330;2023-02-11T01:18:00;16.40;;;5.90;;
46561;SDS011;32289;42.688;23.330;2023-02-11T01:21:41;9.60;;;5.32;;
46561;SDS011;32289;42.688;23.330;2023-02-11T01:25:21;8.55;;;4.30;;
46561;SDS011;32289;42.688;23.330;2023-02-11T01:29:02;8.55;;;4.53;;
46561;SDS011;32289;42.688;23.330;2023-02-11T01:32:43;9.35;;;4.63;;
46561;SDS011;32289;42.688;23.330;2023-02-11T01:36:24;9.43;;;4.65;;
46561;SDS011;32289;42.688;23.330;2023-02-11T01:40:05;11.02;;;5.22;;
46561;SDS011;32289;42.688;23.330;2023-02-11T01:43:49;9.75;;;5.50;;
46561;SDS011;32289;42.688;23.330;2023-02-11T01:47:30;9.75;;;4.10;;
46561;SDS011;32289;42.688;23.330;2023-02-11T01:51:13;20.83;;;6.05;;
46561;SDS011;32289;42.688;23.330;2023-02-11T01:59:03;8.35;;;5.30;;
46561;SDS011;32289;42.688;23.330;2023-02-11T02:02:55;10.52;;;3.85;;
46561;SDS011;32289;42.688;23.330;2023-02-11T02:06:43;11.75;;;5.07;;
46561;SDS011;32289;42.688;23.330;2023-02-11T02:10:43;11.57;;;5.22;;
46561;SDS011;32289;42.688;23.330;2023-02-11T02:14:25;15.32;;;6.05;;
46561;SDS011;32289;42.688;23.330;2023-02-11T02:18:16;8.93;;;3.10;;
46561;SDS011;32289;42.688;23.330;2023-02-11T02:38:47;10.63;;;4.43;;
46561;SDS011;32289;42.688;23.330;2023-02-11T02:42:34;9.57;;;5.28;;
46561;SDS011;32289;42.688;23.330;2023-02-11T02:46:20;21.90;;;6.10;;
46561;SDS011;32289;42.688;23.330;2023-02-11T02:50:03;15.20;;;6.20;;
46561;SDS011;32289;42.688;23.330;2023-02-11T02:58:37;9.88;;;4.63;;
46561;SDS011;32289;42.688;23.330;2023-02-11T03:06:15;16.00;;;4.63;;
46561;SDS011;32289;42.688;23.330;2023-02-11T03:09:59;11.18;;;4.68;;
46561;SDS011;32289;42.688;23.330;2023-02-11T03:13:45;6.50;;;4.47;;
46561;SDS011;32289;42.688;23.330;2023-02-11T03:17:28;13.32;;;5.00;;
46561;SDS011;32289;42.688;23.330;2023-02-11T03:21:11;6.47;;;3.90;;
46561;SDS011;32289;42.688;23.330;2023-02-11T03:24:54;17.33;;;5.60;;
46561;SDS011;32289;42.688;23.330;2023-02-11T03:32:46;12.77;;;5.85;;
46561;SDS011;32289;42.688;23.330;2023-02-11T03:36:41;10.13;;;5.67;;
46561;SDS011;32289;42.688;23.330;2023-02-11T03:40:29;13.82;;;4.75;;
46561;SDS011;32289;42.688;23.330;2023-02-11T03:44:14;15.05;;;5.43;;
46561;SDS011;32289;42.688;23.330;2023-02-11T03:47:57;10.23;;;5.03;;
46561;SDS011;32289;42.688;23.330;2023-02-11T03:51:40;9.90;;;4.95;;
46561;SDS011;32289;42.688;23.330;2023-02-11T03:55:22;13.98;;;5.43;;
46561;SDS011;32289;42.688;23.330;2023-02-11T03:59:04;12.23;;;5.10;;
46561;SDS011;32289;42.688;23.330;2023-02-11T04:02:46;9.38;;;6.18;;
46561;SDS011;32289;42.688;23.330;2023-02-11T04:06:27;8.65;;;3.83;;
46561;SDS011;32289;42.688;23.330;2023-02-11T04:10:08;10.35;;;5.65;;
46561;SDS011;32289;42.688;23.330;2023-02-11T04:13:50;13.32;;;4.75;;
46561;SDS011;32289;42.688;23.330;2023-02-11T04:17:30;8.02;;;4.00;;
46561;SDS011;32289;42.688;23.330;2023-02-11T04:21:11;5.22;;;4.07;;
46561;SDS011;32289;42.688;23.330;2023-02-11T04:24:52;11.80;;;4.43;;
46561;SDS011;32289;42.688;23.330;2023-02-11T04:28:32;10.07;;;4.57;;
46561;SDS011;32289;42.688;23.330;2023-02-11T04:32:14;12.77;;;4.55;;
46561;SDS011;32289;42.688;23.330;2023-02-11T04:35:54;12.93;;;6.78;;
46561;SDS011;32289;42.688;23.330;2023-02-11T04:39:35;15.95;;;6.68;;
46561;SDS011;32289;42.688;23.330;2023-02-11T04:43:16;12.50;;;4.90;;
46561;SDS011;32289;42.688;23.330;2023-02-11T04:46:56;19.95;;;8.23;;
46561;SDS011;32289;42.688;23.330;2023-02-11T04:50:37;14.07;;;8.35;;
46561;SDS011;32289;42.688;23.330;2023-02-11T04:54:18;25.45;;;8.35;;
46561;SDS011;32289;42.688;23.330;2023-02-11T04:57:59;18.27;;;8.55;;
46561;SDS011;32289;42.688;23.330;2023-02-11T05:01:40;16.38;;;8.77;;
46561;SDS011;32289;42.688;23.330;2023-02-11T05:05:20;11.98;;;8.23;;
46561;SDS011;32289;42.688;23.330;2023-02-11T05:09:01;17.33;;;8.25;;
46561;SDS011;32289;42.688;23.330;2023-02-11T05:12:42;16.98;;;7.57;;
46561;SDS011;32289;42.688;23.330;2023-02-11T05:16:22;15.13;;;8.43;;
46561;SDS011;32289;42.688;23.330;2023-02-11T05:20:03;14.07;;;6.80;;
46561;SDS011;32289;42.688;23.330;2023-02-11T05:23:45;14.15;;;6.72;;
46561;SDS011;32289;42.688;23.330;2023-02-11T05:27:25;15.07;;;7.60;;
46561;SDS011;32289;42.688;23.330;2023-02-11T05:31:08;14.02;;;7.63;;
46561;SDS011;32289;42.688;23.330;2023-02-11T05:34:53;17.27;;;6.72;;
46561;SDS011;32289;42.688;23.330;2023-02-11T05:38:36;15.27;;;6.95;;
46561;SDS011;32289;42.688;23.330;2023-02-11T05:42:18;10.55;;;6.65;;
46561;SDS011;32289;42.688;23.330;2023-02-11T05:45:59;12.07;;;6.40;;
46561;SDS011;32289;42.688;23.330;2023-02-11T05:49:40;20.65;;;7.25;;
46561;SDS011;32289;42.688;23.330;2023-02-11T05:53:20;13.02;;;6.70;;
46561;SDS011;32289;42.688;23.330;2023-02-11T05:57:02;17.75;;;7.43;;
46561;SDS011;32289;42.688;23.330;2023-02-11T06:00:43;14.13;;;7.13;;
46561;SDS011;32289;42.688;23.330;2023-02-11T06:04:24;12.43;;;5.22;;
46561;SDS011;32289;42.688;23.330;2023-02-11T06:08:05;23.48;;;10.43;;
46561;SDS011;32289;42.688;23.330;2023-02-11T06:11:47;7.75;;;6.00;;
46561;SDS011;32289;42.688;23.330;2023-02-11T06:15:27;11.77;;;6.05;;
46561;SDS011;32289;42.688;23.330;2023-02-11T06:19:08;17.83;;;7.53;;
46561;SDS011;32289;42.688;23.330;2023-02-11T06:22:49;15.82;;;6.50;;
46561;SDS011;32289;42.688;23.330;2023-02-11T06:26:29;13.90;;;6.85;;
46561;SDS011;32289;42.688;23.330;2023-02-11T06:30:11;16.45;;;6.47;;
46561;SDS011;32289;42.688;23.330;2023-02-11T06:33:52;10.63;;;6.00;;
46561;SDS011;32289;42.688;23.330;2023-02-11T06:37:37;14.48;;;7.45;;
46561;SDS011;32289;42.688;23.330;2023-02-11T06:41:18;16.27;;;6.10;;
46561;SDS011;32289;42.688;23.330;2023-02-11T06:44:59;14.75;;;7.72;;
46561;SDS011;32289;42.688;23.330;2023-02-11T06:48:40;14.32;;;7.28;;
46561;SDS011;32289;42.688;23.330;2023-02-11T06:52:21;13.60;;;7.57;;
46561;SDS011;32289;42.688;23.330;2023-02-11T06:56:07;18.63;;;8.02;;
46561;SDS011;32289;42.688;23.330;2023-02-11T06:59:49;20.90;;;8.20;;
46561;SDS011;32289;42.688;23.330;2023-02-11T07:03:31;10.32;;;5.57;;
46561;SDS011;32289;42.688;23.330;2023-02-11T07:07:16;15.98;;;7.50;;
46561;SDS011;32289;42.688;23.330;2023-02-11T07:10:57;12.85;;;8.15;;
46561;SDS011;32289;42.688;23.330;2023-02-11T07:14:39;17.58;;;7.57;;
46561;SDS011;32289;42.688;23.330;2023-02-11T07:18:20;20.50;;;8.15;;
46561;SDS011;32289;42.688;23.330;2023-02-11T07:22:00;9.88;;;5.47;;
46561;SDS011;32289;42.688;23.330;2023-02-11T07:25:41;19.73;;;10.75;;
46561;SDS011;32289;42.688;23.330;2023-02-11T07:29:22;14.60;;;7.70;;
46561;SDS011;32289;42.688;23.330;2023-02-11T07:33:02;12.85;;;6.07;;
46561;SDS011;32289;42.688;23.330;2023-02-11T07:36:43;11.48;;;6.65;;
46561;SDS011;32289;42.688;23.330;2023-02-11T07:40:24;19.08;;;6.82;;
46561;SDS011;32289;42.688;23.330;2023-02-11T07:44:05;9.77;;;5.13;;
46561;SDS011;32289;42.688;23.330;2023-02-11T07:47:46;22.67;;;8.40;;
46561;SDS011;32289;42.688;23.330;2023-02-11T07:51:28;13.77;;;5.95;;
46561;SDS011;32289;42.688;23.330;2023-02-11T07:55:09;15.30;;;7.10;;
46561;SDS011;32289;42.688;23.330;2023-02-11T07:58:50;14.23;;;6.57;;
46561;SDS011;32289;42.688;23.330;2023-02-11T08:02:31;21.80;;;9.20;;
46561;SDS011;32289;42.688;23.330;2023-02-11T08:06:13;25.38;;;7.97;;
46561;SDS011;32289;42.688;23.330;2023-02-11T08:09:56;18.08;;;9.07;;
46561;SDS011;32289;42.688;23.330;2023-02-11T08:13:37;19.88;;;8.20;;
46561;SDS011;32289;42.688;23.330;2023-02-11T08:17:18;21.77;;;9.27;;
46561;SDS011;32289;42.688;23.330;2023-02-11T08:21:03;19.40;;;8.82;;
46561;SDS011;32289;42.688;23.330;2023-02-11T08:24:47;21.13;;;8.70;;
46561;SDS011;32289;42.688;23.330;2023-02-11T08:28:28;18.67;;;8.02;;
46561;SDS011;32289;42.688;23.330;2023-02-11T08:32:09;16.67;;;7.88;;
46561;SDS011;32289;42.688;23.330;2023-02-11T08:35:49;21.33;;;9.20;;
46561;SDS011;32289;42.688;23.330;2023-02-11T08:39:30;16.98;;;7.43;;
46561;SDS011;32289;42.688;23.330;2023-02-11T08:43:11;16.52;;;7.85;;
46561;SDS011;32289;42.688;23.330;2023-02-11T08:46:52;18.13;;;8.68;;
46561;SDS011;32289;42.688;23.330;2023-02-11T08:50:33;19.13;;;8.75;;
46561;SDS011;32289;42.688;23.330;2023-02-11T08:54:17;21.55;;;9.52;;
46561;SDS011;32289;42.688;23.330;2023-02-11T08:57:58;19.33;;;8.82;;
46561;SDS011;32289;42.688;23.330;2023-02-11T09:01:40;27.48;;;8.95;;
46561;SDS011;32289;42.688;23.330;2023-02-11T09:05:20;21.45;;;10.38;;
46561;SDS011;32289;42.688;23.330;2023-02-11T09:09:02;23.38;;;10.27;;
46561;SDS011;32289;42.688;23.330;2023-02-11T09:12:42;16.48;;;9.02;;
46561;SDS011;32289;42.688;23.330;2023-02-11T09:16:24;20.33;;;9.88;;
46561;SDS011;32289;42.688;23.330;2023-02-11T09:20:07;18.25;;;8.52;;
46561;SDS011;32289;42.688;23.330;2023-02-11T09:23:48;15.68;;;8.25;;
46561;SDS011;32289;42.688;23.330;2023-02-11T09:27:29;19.75;;;9.95;;
46561;SDS011;32289;42.688;23.330;2023-02-11T09:31:12;16.88;;;8.35;;
46561;SDS011;32289;42.688;23.330;2023-02-11T09:34:54;19.25;;;9.07;;
46561;SDS011;32289;42.688;23.330;2023-02-11T09:38:35;18.40;;;8.60;;
46561;SDS011;32289;42.688;23.330;2023-02-11T09:46:18;16.25;;;7.90;;
46561;SDS011;32289;42.688;23.330;2023-02-11T09:50:04;20.52;;;7.75;;
46561;SDS011;32289;42.688;23.330;2023-02-11T09:53:51;17.35;;;8.52;;
46561;SDS011;32289;42.688;23.330;2023-02-11T09:57:36;17.17;;;9.35;;
46561;SDS011;32289;42.688;23.330;2023-02-11T10:01:26;18.23;;;8.95;;
46561;SDS011;32289;42.688;23.330;2023-02-11T10:05:36;18.85;;;9.23;;
46561;SDS011;32289;42.688;23.330;2023-02-11T10:13:57;17.40;;;10.15;;
46561;SDS011;32289;42.688;23.330;2023-02-11T10:29:20;18.63;;;9.95;;
46561;SDS011;32289;42.688;23.330;2023-02-11T10:36:56;15.50;;;8.07;;
46561;SDS011;32289;42.688;23.330;2023-02-11T10:40:37;14.65;;;7.68;;
46561;SDS011;32289;42.688;23.330;2023-02-11T10:44:23;16.52;;;7.90;;
46561;SDS011;32289;42.688;23.330;2023-02-11T10:48:06;15.10;;;7.85;;
46561;SDS011;32289;42.688;23.330;2023-02-11T10:56:04;21.45;;;8.52;;
46561;SDS011;32289;42.688;23.330;2023-02-11T10:59:46;15.23;;;7.63;;
46561;SDS011;32289;42.688;23.330;2023-02-11T11:03:30;12.77;;;7.38;;
46561;SDS011;32289;42.688;23.330;2023-02-11T11:07:17;12.98;;;6.88;;
46561;SDS011;32289;42.688;23.330;2023-02-11T11:11:04;12.38;;;6.30;;
46561;SDS011;32289;42.688;23.330;2023-02-11T11:14:52;13.57;;;6.50;;
46561;SDS011;32289;42.688;23.330;2023-02-11T11:18:35;14.00;;;7.35;;
46561;SDS011;32289;42.688;23.330;2023-02-11T11:22:22;12.70;;;6.95;;
46561;SDS011;32289;42.688;23.330;2023-02-11T11:26:10;14.73;;;7.20;;
46561;SDS011;32289;42.688;23.330;2023-02-11T11:29:55;12.93;;;6.47;;
46561;SDS011;32289;42.688;23.330;2023-02-11T11:33:36;12.00;;;5.65;;
46561;SDS011;32289;42.688;23.330;2023-02-11T11:37:25;11.32;;;5.95;;
46561;SDS011;32289;42.688;23.330;2023-02-11T11:41:14;12.85;;;6.47;;
46561;SDS011;32289;42.688;23.330;2023-02-11T11:49:05;10.45;;;5.32;;
46561;SDS011;32289;42.688;23.330;2023-02-11T11:57:02;11.23;;;5.80;;
46561;SDS011;32289;42.688;23.330;2023-02-11T12:09:00;10.40;;;6.50;;
46561;SDS011;32289;42.688;23.330;2023-02-11T12:25:04;8.73;;;4.95;;
46561;SDS011;32289;42.688;23.330;2023-02-11T12:49:38;11.07;;;5.30;;
46561;SDS011;32289;42.688;23.330;2023-02-11T12:57:27;12.98;;;5.75;;
46561;SDS011;32289;42.688;23.330;2023-02-11T13:01:14;9.52;;;4.43;;
46561;SDS011;32289;42.688;23.330;2023-02-11T13:05:24;12.50;;;6.28;;
46561;SDS011;32289;42.688;23.330;2023-02-11T13:09:15;11.90;;;5.68;;
46561;SDS011;32289;42.688;23.330;2023-02-11T13:13:00;11.95;;;5.13;;
46561;SDS011;32289;42.688;23.330;2023-02-11T13:16:57;9.00;;;4.85;;
46561;SDS011;32289;42.688;23.330;2023-02-11T13:20:40;11.88;;;5.53;;
46561;SDS011;32289;42.688;23.330;2023-02-11T13:24:46;11.88;;;4.90;;
46561;SDS011;32289;42.688;23.330;2023-02-11T13:32:15;11.18;;;4.78;;
46561;SDS011;32289;42.688;23.330;2023-02-11T13:39:36;10.60;;;4.88;;
46561;SDS011;32289;42.688;23.330;2023-02-11T13:43:19;11.68;;;4.35;;
46561;SDS011;32289;42.688;23.330;2023-02-11T13:47:05;11.32;;;4.80;;
46561;SDS011;32289;42.688;23.330;2023-02-11T13:50:50;11.23;;;3.88;;
46561;SDS011;32289;42.688;23.330;2023-02-11T13:54:36;11.95;;;4.72;;
46561;SDS011;32289;42.688;23.330;2023-02-11T14:06:26;10.15;;;3.20;;
46561;SDS011;32289;42.688;23.330;2023-02-11T14:14:30;9.52;;;4.60;;
46561;SDS011;32289;42.688;23.330;2023-02-11T14:22:26;10.02;;;4.30;;
46561;SDS011;32289;42.688;23.330;2023-02-11T14:42:28;15.68;;;4.97;;
46561;SDS011;32289;42.688;23.330;2023-02-11T14:46:10;12.80;;;6.22;;
46561;SDS011;32289;42.688;23.330;2023-02-11T14:49:50;12.18;;;5.10;;
46561;SDS011;32289;42.688;23.330;2023-02-11T14:53:32;9.48;;;5.05;;
46561;SDS011;32289;42.688;23.330;2023-02-11T14:57:15;10.68;;;4.93;;
46561;SDS011;32289;42.688;23.330;2023-02-11T15:04:40;12.05;;;5.65;;
46561;SDS011;32289;42.688;23.330;2023-02-11T15:08:22;9.57;;;4.35;;
46561;SDS011;32289;42.688;23.330;2023-02-11T15:12:03;10.13;;;4.25;;
46561;SDS011;32289;42.688;23.330;2023-02-11T15:16:26;12.47;;;4.07;;
46561;SDS011;32289;42.688;23.330;2023-02-11T15:20:01;14.80;;;5.35;;
46561;SDS011;32289;42.688;23.330;2023-02-11T15:23:42;9.32;;;4.65;;
46561;SDS011;32289;42.688;23.330;2023-02-11T15:28:10;10.75;;;4.93;;
46561;SDS011;32289;42.688;23.330;2023-02-11T15:36:04;9.68;;;4.70;;
46561;SDS011;32289;42.688;23.330;2023-02-11T15:39:45;11.10;;;5.03;;
46561;SDS011;32289;42.688;23.330;2023-02-11T15:43:42;25.00;;;10.05;;
46561;SDS011;32289;42.688;23.330;2023-02-11T15:47:24;20.13;;;9.40;;
46561;SDS011;32289;42.688;23.330;2023-02-11T15:55:11;12.98;;;5.00;;
46561;SDS011;32289;42.688;23.330;2023-02-11T15:58:54;18.75;;;6.93;;
46561;SDS011;32289;42.688;23.330;2023-02-11T16:02:39;23.52;;;7.82;;
46561;SDS011;32289;42.688;23.330;2023-02-11T16:06:45;15.95;;;7.20;;
46561;SDS011;32289;42.688;23.330;2023-02-11T16:10:29;15.57;;;7.30;;
46561;SDS011;32289;42.688;23.330;2023-02-11T16:17:59;26.15;;;8.00;;
46561;SDS011;32289;42.688;23.330;2023-02-11T16:21:43;20.40;;;8.23;;
46561;SDS011;32289;42.688;23.330;2023-02-11T16:25:24;16.95;;;7.10;;
46561;SDS011;32289;42.688;23.330;2023-02-11T16:29:15;23.85;;;8.50;;
46561;SDS011;32289;42.688;23.330;2023-02-11T16:33:00;15.95;;;6.75;;
46561;SDS011;32289;42.688;23.330;2023-02-11T16:36:42;22.38;;;7.78;;
46561;SDS011;32289;42.688;23.330;2023-02-11T16:40:23;15.00;;;6.88;;
46561;SDS011;32289;42.688;23.330;2023-02-11T16:44:04;12.05;;;6.03;;
46561;SDS011;32289;42.688;23.330;2023-02-11T16:47:44;24.35;;;9.23;;
46561;SDS011;32289;42.688;23.330;2023-02-11T16:51:25;16.05;;;6.65;;
46561;SDS011;32289;42.688;23.330;2023-02-11T16:55:08;29.52;;;9.35;;
46561;SDS011;32289;42.688;23.330;2023-02-11T16:58:49;17.10;;;7.25;;
46561;SDS011;32289;42.688;23.330;2023-02-11T17:02:30;21.42;;;8.40;;
46561;SDS011;32289;42.688;23.330;2023-02-11T17:06:13;24.77;;;9.93;;
46561;SDS011;32289;42.688;23.330;2023-02-11T17:09:56;25.52;;;9.15;;
46561;SDS011;32289;42.688;23.330;2023-02-11T17:13:37;19.33;;;9.32;;
46561;SDS011;32289;42.688;23.330;2023-02-11T17:17:20;25.30;;;9.88;;
46561;SDS011;32289;42.688;23.330;2023-02-11T17:21:04;22.38;;;8.27;;
46561;SDS011;32289;42.688;23.330;2023-02-11T17:24:46;18.52;;;9.35;;
46561;SDS011;32289;42.688;23.330;2023-02-11T17:28:26;17.50;;;6.97;;
46561;SDS011;32289;42.688;23.330;2023-02-11T17:32:08;17.67;;;8.02;;
46561;SDS011;32289;42.688;23.330;2023-02-11T17:35:48;19.92;;;8.40;;
46561;SDS011;32289;42.688;23.330;2023-02-11T17:39:29;22.05;;;8.77;;
46561;SDS011;32289;42.688;23.330;2023-02-11T17:43:10;16.58;;;8.65;;
46561;SDS011;32289;42.688;23.330;2023-02-11T17:46:54;23.92;;;9.43;;
46561;SDS011;32289;42.688;23.330;2023-02-11T17:50:35;26.45;;;10.95;;
46561;SDS011;32289;42.688;23.330;2023-02-11T17:54:17;20.73;;;9.90;;
46561;SDS011;32289;42.688;23.330;2023-02-11T17:57:59;23.77;;;10.45;;
46561;SDS011;32289;42.688;23.330;2023-02-11T18:01:40;22.15;;;10.18;;
46561;SDS011;32289;42.688;23.330;2023-02-11T18:05:22;20.30;;;8.73;;
46561;SDS011;32289;42.688;23.330;2023-02-11T18:09:08;16.37;;;6.67;;
46561;SDS011;32289;42.688;23.330;2023-02-11T18:12:49;15.85;;;7.80;;
46561;SDS011;32289;42.688;23.330;2023-02-11T18:16:30;17.23;;;8.10;;
46561;SDS011;32289;42.688;23.330;2023-02-11T18:20:13;13.25;;;6.28;;
46561;SDS011;32289;42.688;23.330;2023-02-11T18:23:53;17.38;;;5.90;;
46561;SDS011;32289;42.688;23.330;2023-02-11T18:27:36;14.60;;;6.28;;
46561;SDS011;32289;42.688;23.330;2023-02-11T18:31:17;12.65;;;5.47;;
46561;SDS011;32289;42.688;23.330;2023-02-11T18:34:58;15.15;;;5.63;;
46561;SDS011;32289;42.688;23.330;2023-02-11T18:38:39;10.38;;;6.20;;
46561;SDS011;32289;42.688;23.330;2023-02-11T18:42:20;16.42;;;5.35;;
46561;SDS011;32289;42.688;23.330;2023-02-11T18:46:01;13.35;;;6.60;;
46561;SDS011;32289;42.688;23.330;2023-02-11T18:49:47;10.88;;;5.57;;
46561;SDS011;32289;42.688;23.330;2023-02-11T18:53:27;18.42;;;7.50;;
46561;SDS011;32289;42.688;23.330;2023-02-11T18:57:08;10.38;;;5.15;;
46561;SDS011;32289;42.688;23.330;2023-02-11T19:00:49;17.70;;;5.85;;
46561;SDS011;32289;42.688;23.330;2023-02-11T19:04:30;12.38;;;7.28;;
46561;SDS011;32289;42.688;23.330;2023-02-11T19:08:10;23.65;;;7.90;;
46561;SDS011;32289;42.688;23.330;2023-02-11T19:11:52;15.20;;;7.38;;
46561;SDS011;32289;42.688;23.330;2023-02-11T19:15:33;14.77;;;7.20;;
46561;SDS011;32289;42.688;23.330;2023-02-11T19:19:15;13.43;;;7.60;;
46561;SDS011;32289;42.688;23.330;2023-02-11T19:22:56;14.80;;;6.65;;
46561;SDS011;32289;42.688;23.330;2023-02-11T19:26:37;16.08;;;6.20;;
46561;SDS011;32289;42.688;23.330;2023-02-11T19:30:18;8.90;;;5.85;;
46561;SDS011;32289;42.688;23.330;2023-02-11T19:34:00;16.05;;;6.03;;
46561;SDS011;32289;42.688;23.330;2023-02-11T19:37:41;13.50;;;6.78;;
46561;SDS011;32289;42.688;23.330;2023-02-11T19:41:22;13.98;;;5.50;;
46561;SDS011;32289;42.688;23.330;2023-02-11T19:45:03;14.07;;;7.05;;
46561;SDS011;32289;42.688;23.330;2023-02-11T19:48:47;18.40;;;6.78;;
46561;SDS011;32289;42.688;23.330;2023-02-11T19:52:28;14.15;;;6.32;;
46561;SDS011;32289;42.688;23.330;2023-02-11T19:56:09;21.60;;;6.20;;
46561;SDS011;32289;42.688;23.330;2023-02-11T19:59:51;13.38;;;6.07;;
46561;SDS011;32289;42.688;23.330;2023-02-11T20:03:34;17.38;;;6.90;;
46561;SDS011;32289;42.688;23.330;2023-02-11T20:07:15;8.95;;;4.60;;
46561;SDS011;32289;42.688;23.330;2023-02-11T20:10:55;17.30;;;5.03;;
46561;SDS011;32289;42.688;23.330;2023-02-11T20:14:36;11.18;;;4.88;;
46561;SDS011;32289;42.688;23.330;2023-02-11T20:18:17;12.82;;;6.22;;
46561;SDS011;32289;42.688;23.330;2023-02-11T20:21:57;8.35;;;2.75;;
46561;SDS011;32289;42.688;23.330;2023-02-11T20:25:38;15.23;;;5.20;;
46561;SDS011;32289;42.688;23.330;2023-02-11T20:29:19;10.00;;;4.60;;
46561;SDS011;32289;42.688;23.330;2023-02-11T20:33:00;8.82;;;4.65;;
46561;SDS011;32289;42.688;23.330;2023-02-11T20:36:41;8.55;;;4.80;;
46561;SDS011;32289;42.688;23.330;2023-02-11T20:40:21;8.88;;;4.95;;
46561;SDS011;32289;42.688;23.330;2023-02-11T20:44:03;9.82;;;3.90;;
46561;SDS011;32289;42.688;23.330;2023-02-11T20:47:45;10.80;;;5.10;;
46561;SDS011;32289;42.688;23.330;2023-02-11T20:51:27;10.85;;;4.60;;
46561;SDS011;32289;42.688;23.330;2023-02-11T20:55:10;14.20;;;4.95;;
46561;SDS011;32289;42.688;23.330;2023-02-11T20:58:51;13.13;;;5.68;;
46561;SDS011;32289;42.688;23.330;2023-02-11T21:02:32;14.13;;;5.68;;
46561;SDS011;32289;42.688;23.330;2023-02-11T21:06:13;10.07;;;5.50;;
46561;SDS011;32289;42.688;23.330;2023-02-11T21:09:53;6.55;;;3.72;;
46561;SDS011;32289;42.688;23.330;2023-02-11T21:13:35;16.73;;;5.35;;
46561;SDS011;32289;42.688;23.330;2023-02-11T21:17:16;10.00;;;5.32;;
46561;SDS011;32289;42.688;23.330;2023-02-11T21:20:56;14.00;;;4.80;;
46561;SDS011;32289;42.688;23.330;2023-02-11T21:24:37;8.75;;;4.00;;
46561;SDS011;32289;42.688;23.330;2023-02-11T21:28:18;13.35;;;4.85;;
46561;SDS011;32289;42.688;23.330;2023-02-11T21:32:05;13.23;;;4.95;;
46561;SDS011;32289;42.688;23.330;2023-02-11T21:35:48;15.20;;;4.53;;
46561;SDS011;32289;42.688;23.330;2023-02-11T21:39:29;7.95;;;3.25;;
46561;SDS011;32289;42.688;23.330;2023-02-11T21:43:10;14.68;;;2.97;;
46561;SDS011;32289;42.688;23.330;2023-02-11T21:46:50;14.77;;;3.45;;
46561;SDS011;32289;42.688;23.330;2023-02-11T21:50:31;10.27;;;4.90;;
46561;SDS011;32289;42.688;23.330;2023-02-11T21:54:12;8.75;;;4.22;;
46561;SDS011;32289;42.688;23.330;2023-02-11T21:57:52;14.27;;;5.10;;
46561;SDS011;32289;42.688;23.330;2023-02-11T22:01:33;9.50;;;3.70;;
46561;SDS011;32289;42.688;23.330;2023-02-11T22:05:14;19.73;;;6.07;;
46561;SDS011;32289;42.688;23.330;2023-02-11T22:08:55;12.55;;;4.22;;
46561;SDS011;32289;42.688;23.330;2023-02-11T22:12:36;14.43;;;5.38;;
46561;SDS011;32289;42.688;23.330;2023-02-11T22:16:17;10.93;;;4.10;;
46561;SDS011;32289;42.688;23.330;2023-02-11T22:19:58;7.03;;;4.15;;
46561;SDS011;32289;42.688;23.330;2023-02-11T22:23:39;14.48;;;5.65;;
46561;SDS011;32289;42.688;23.330;2023-02-11T22:27:20;9.00;;;4.00;;
46561;SDS011;32289;42.688;23.330;2023-02-11T22:31:01;10.25;;;4.22;;
46561;SDS011;32289;42.688;23.330;2023-02-11T22:34:42;8.93;;;4.65;;
46561;SDS011;32289;42.688;23.330;2023-02-11T22:38:23;11.43;;;4.45;;
46561;SDS011;32289;42.688;23.330;2023-02-11T22:42:04;7.35;;;3.35;;
46561;SDS011;32289;42.688;23.330;2023-02-11T22:45:45;9.15;;;4.55;;
46561;SDS011;32289;42.688;23.330;2023-02-11T22:49:26;8.57;;;3.85;;
46561;SDS011;32289;42.688;23.330;2023-02-11T22:53:07;22.90;;;4.15;;
46561;SDS011;32289;42.688;23.330;2023-02-11T22:56:49;10.07;;;4.35;;
46561;SDS011;32289;42.688;23.330;2023-02-11T23:00:34;11.90;;;2.63;;
46561;SDS011;32289;42.688;23.330;2023-02-11T23:04:18;8.45;;;4.05;;
46561;SDS011;32289;42.688;23.330;2023-02-11T23:07:59;6.70;;;3.90;;
46561;SDS011;32289;42.688;23.330;2023-02-11T23:11:42;8.43;;;3.20;;
46561;SDS011;32289;42.688;23.330;2023-02-11T23:15:28;7.15;;;3.17;;
46561;SDS011;32289;42.688;23.330;2023-02-11T23:19:09;8.70;;;3.90;;
46561;SDS011;32289;42.688;23.330;2023-02-11T23:22:50;9.70;;;3.67;;
46561;SDS011;32289;42.688;23.330;2023-02-11T23:26:30;10.93;;;4.07;;
46561;SDS011;32289;42.688;23.330;2023-02-11T23:30:11;7.80;;;3.40;;
46561;SDS011;32289;42.688;23.330;2023-02-11T23:33:52;6.35;;;2.90;;
46561;SDS011;32289;42.688;23.330;2023-02-11T23:37:33;8.40;;;4.05;;
46561;SDS011;32289;42.688;23.330;2023-02-11T23:41:14;9.25;;;4.13;;
46561;SDS011;32289;42.688;23.330;2023-02-11T23:44:56;8.43;;;3.95;;
46561;SDS011;32289;42.688;23.330;2023-02-11T23:48:37;7.55;;;3.75;;
46561;SDS011;32289;42.688;23.330;2023-02-11T23:52:19;5.78;;;3.17;;
46561;SDS011;32289;42.688;23.330;2023-02-11T23:56:00;15.75;;;5.68;;
46561;SDS011;32289;42.688;23.330;2023-02-11T23:59:47;9.88;;;4.47;;
